Wilmington, OH

10:59 PM EST on December 08, 2016 (GMT -0500)
2.2 N Wilmington | | Change Station

Elev 1053 ft 39.47 °N, 83.84 °W | Updated 4 minutes ago

Light Snow
Light Snow
21.0 °F
Feels Like 15 °F
N
4.0
Wind Variable Wind from NNW
Gusts 9.0 mph

Today
High -- | Low -- °F
--% Chance of Precip.
Yesterday
High -- | Low -- °F
Precip. -- in
Pressure 30.49 in
Visibility 5.0 miles
Clouds Few 1400 ft
Scattered Clouds 2300 ft
Overcast 2800 ft
Windchill 15 °F
Dew Point 17 °F
Humidity 84%
Rainfall 0.00 in
Snow Depth Not available.
7:43 AM 5:11 PM
Waxing Gibbous, 70% visible
METAR KILN 090354Z AUTO 31010KT 5SM -SN FEW014 SCT023 OVC028 M06/M09 A3038 RMK AO2 SLP323 P0001 T10611089
Pressure 30.49 in
Visibility 5.0 miles
Clouds Few 1400 ft
Scattered Clouds 2300 ft
Overcast 2800 ft
Windchill 15 °F
Dew Point 17 °F
Humidity 84%
Rainfall 0.00 in
Snow Depth Not available.
7:43 AM 5:11 PM
Waxing Gibbous, 70% visible
METAR KILN 090354Z AUTO 31010KT 5SM -SN FEW014 SCT023 OVC028 M06/M09 A3038 RMK AO2 SLP323 P0001 T10611089

10-Day Weather Forecast

Almanac

Astronomy

Dec. 08, 2016 Rise Set
Actual Time
Civil Twilight
Nautical Twilight
Astronomical Twilight
Moon
Length of Visible Light
Length of Day
Tomorrow will be .
, % of the Moon is Illuminated

Today's Extremes

State Highs State Lows

Community

WunderPhotos

Upload Photos

1,956,370 photos uploaded!

WunderBlog® & News

Nearby

Air Quality

  Air Quality AQ Index Pollutant
Not available.

Snow Depth

Station Depth Elevation

Earthquake Activity

City Distance Mag. Time & Date
Minimum magnitude displayed is 2.5.

Coastal Water Temperatures

Place Temperature

Stations

Nearby Weather Stations

Station Location Temp. Windchill Dew Point Humidity Wind Precip. Elev Updated Type
                   

Watches & Warnings

There are currently no watches in effect.